Flight Track Log - Related Links

Times and Time Zones

All times are in EDT time to prevent confusion due to time zone crossing. See the SKW6345 flight status page for this flight to view local times or setup timezone preferences in your user account.

Time Position Orientation Groundspeed Altitude Reporting Facility
EDT Latitude Longitude Course Direction KTS MPH feet Rate Location/Type
Mon 09:27:25 AM 44.4539 -109.0683 157° South 221 254 8,600  Level Salt Lake Center
Mon 09:29:00 AM 44.0579 -108.6330 159° South  Level FlightAware Approximate
Mon 09:29:00 AM 44.5681 -108.9326 159° South  Level FlightAware Approximate
Mon 09:30:00 AM 43.9627 -108.5810 157° South  Level FlightAware Approximate
Mon 09:31:00 AM 43.8685 -108.5260 157° South  Level FlightAware Approximate
Mon 09:32:00 AM 43.7743 -108.4711 157° South  Level FlightAware Approximate
Mon 09:32:30 AM 44.3414 -108.8039 157° South 347 399 18,200  Level Salt Lake Center
Mon 09:33:31 AM 44.2528 -108.7528 158° South 359 413 19,800 1,574 Climbing Salt Lake Center
Mon 09:35:00 AM 44.1149 -108.6641 159° South  Level FlightAware Approximate
Mon 09:35:33 AM 44.0550 -108.6389 159° South 371 427 23,000  Level Salt Lake Center
Mon 09:36:00 AM 43.9078 -108.5489 157° South  Level FlightAware Approximate
Mon 09:36:34 AM 43.9617 -108.5856 158° South 378 435 24,300  Level Salt Lake Center
Mon 09:37:00 AM 43.8135 -108.4939 157° South  Level FlightAware Approximate
Mon 09:37:35 AM 43.8661 -108.5317 158° South 387 445 25,300  Level Salt Lake Center
Mon 09:39:00 AM 43.7344 -108.4482 157° South  Level FlightAware Approximate
Mon 09:39:37 AM 43.6519 -108.4103 157° South 403 464 27,000  Level Salt Lake Center
Mon 09:40:38 AM 43.5386 -108.3450 157° South 396 456 27,000  Level Salt Lake Center
Mon 09:41:39 AM 43.4500 -108.2903 156° South 370 426 27,000  Level Salt Lake Center
Mon 09:42:40 AM 43.3778 -108.2106 141° Southeast 349 402 27,000  Level Salt Lake Center
Mon 09:43:41 AM 43.2964 -108.1250 143° Southeast 334 384 27,000  Level Salt Lake Center
Mon 09:45:20 AM 43.1947 -108.0150 142° Southeast 325 374 27,000  Level Denver Center
Mon 09:46:45 AM 43.0794 -107.8972 143° Southeast 325 374 27,000  Level Salt Lake Center
Mon 09:47:46 AM 43.0092 -107.8200 141° Southeast 326 375 27,000  Level Salt Lake Center
Mon 09:48:47 AM 42.9319 -107.7417 143° Southeast 321 369 27,000  Level Salt Lake Center
Mon 09:49:48 AM 42.8617 -107.6664 142° Southeast 321 369 27,000  Level Salt Lake Center
Mon 09:51:51 AM 42.7261 -107.5250 143° Southeast 321 369 27,000  Level Salt Lake Center
Mon 09:53:30 AM 42.5992 -107.3919 142° Southeast 328 377 27,000  Level Denver Center
Mon 09:55:44 AM 42.4575 -107.2489 143° Southeast 330 380 27,000  Level Denver Center
Mon 09:56:46 AM 42.3619 -107.1500 143° Southeast 338 389 27,000  Level Denver Center
Mon 09:57:47 AM 42.2789 -107.0664 143° Southeast 334 384 27,000  Level Denver Center
Mon 10:00:00 AM 42.1233 -106.9083 143° Southeast 337 388 27,000  Level Salt Lake Center
Mon 10:00:51 AM 42.0539 -106.8372 143° Southeast 331 381 27,000  Level Denver Center
Mon 10:01:53 AM 41.9825 -106.7669 144° Southeast 332 382 27,000  Level Denver Center
Mon 10:02:54 AM 41.9014 -106.6839 143° Southeast 329 379 27,000  Level Denver Center
Mon 10:05:00 AM 41.7531 -106.5310 142° Southeast  Level FlightAware Approximate
Mon 10:05:58 AM 41.6311 -106.4050 142° Southeast 431 496 27,000  Level Denver Center
Mon 10:07:00 AM 41.5383 -106.3083 142° Southeast 442 509 27,000  Level Denver Center
Mon 10:08:01 AM 41.4458 -106.2111 142° Southeast 443 510 27,000  Level Denver Center
Mon 10:10:04 AM 41.2481 -106.0067 142° Southeast 436 502 27,000 -537 Level Denver Center
Mon 10:12:07 AM 41.0486 -105.8014 142° Southeast 437 503 24,800 -1,135 Descending Denver Center
Mon 10:13:09 AM 40.9522 -105.7050 143° Southeast 421 484 23,500 -1,171 Descending Denver Center
Mon 10:14:10 AM 40.8639 -105.6158 143° Southeast 399 459 22,400 -1,122 Descending Denver Center
Mon 10:15:12 AM 40.7792 -105.5281 142° Southeast 387 445 21,200 -1,015 Descending Denver Center
Mon 10:16:26 AM 40.6956 -105.4422 142° Southeast 377 434 20,100 -1,103 Descending Denver Center
Mon 10:17:28 AM 40.5922 -105.3389 143° Southeast 346 398 18,700 -1,067 Descending Denver Center
Mon 10:18:41 AM 40.5106 -105.2586 143° Southeast 360 414 17,700 -1,320 Descending Denver Center
Mon 10:20:00 AM 40.4561 -105.1183 114° Southeast  Level FlightAware Approximate
Mon 10:21:47 AM 40.3033 -104.9606 169° South 330 380 13,000  Level Denver Center
Mon 10:23:23 AM 40.2333 -104.8333 126° Southeast 262 302 12,000 -871 Descending Denver TRACON
Mon 10:23:51 AM 40.2089 -104.8233 163° South 256 295 11,200 -1,350 Descending Denver Center
Mon 10:25:23 AM 40.1167 -104.7667 155° Southeast 247 284 9,300 -1,026 Descending Denver TRACON
Mon 10:26:23 AM 40.0500 -104.7333 159° South 216 249 8,600 -947 Descending Denver TRACON
Mon 10:27:00 AM 39.9991 -104.6873 169° South  Level FlightAware Approximate
Mon 10:27:17 AM 40.0000 -104.7167 166° South 193 222 7,500  Level Denver TRACON
Mon 10:27:58 AM 39.9706 -104.6964 152° Southeast 183 211 6,900 -878 Descending Denver Center

Login

Don't have an account? Register now (free) for customized features, flight alerts, and more!